This demonstration page uses our WeatherBlox Daily Observations layout. Learn more.

Hourly Observations for November 11, 2016

Temp ( °F °C ) Dew Point ( °F °C ) Humidity (%) Winds ( mph kmh ) Pressure ( in mb ) Visibility ( mi km ) Precip ( " mm )
12:54 am 00:54 Clear 47 8.3 38 3.3 71 71 N 13 20 30.32 1027 10 16.0934 0 0
1:54 am 01:54 Clear 45 7.2 36 2.2 71 71 N 9 15 30.34 1027 10 16.0934 0 0
2:54 am 02:54 Clear 45 7.2 36 2.2 71 71 NNW 5 7 30.37 1028 10 16.0934 0 0
3:54 am 03:54 Clear 42 5.6 36 2.2 79 79 N 10 17 30.37 1029 10 16.0934 0 0
4:54 am 04:54 Clear 40 4.4 36 2.2 86 86 N 12 19 30.39 1029 10 16.0934 0 0
5:54 am 05:54 Clear 38 3.3 34 1.1 86 86 N 10 17 30.41 1030 10 16.0934 0 0
6:54 am 06:54 Clear 40 4.4 34 1.1 79 79 NNW 9 15 30.44 1031 10 16.0934 0 0
7:54 am 07:54 Sunny 41 5 34 1.1 76 76 NNW 9 15 30.46 1032 10 16.0934 0 0
8:54 am 08:54 Sunny 45 7.2 36 2.2 71 71 N 8 13 30.47 1032 10 16.0934 0 0
9:54 am 09:54 Sunny 48 8.9 35 1.7 61 61 NNE 10 17 30.49 1033 10 16.0934 0 0
10:54 am 10:54 Sunny 50 10 35 1.7 57 57 N 12 19 30.5 1033 10 16.0934 0 0
11:54 am 11:54 Sunny 54 12.2 33 0.6 45 45 NNE 13 20 30.49 1032 10 16.0934 0 0
12:54 pm 12:54 Sunny 55 12.8 33 0.6 44 44 NNE 10 17 30.46 1031 10 16.0934 0 0
1:54 pm 13:54 Sunny 55 12.8 33 0.6 44 44 N 12 19 30.43 1031 10 16.0934 0 0
2:54 pm 14:54 Sunny 54 12.2 33 0.6 45 45 NNE 13 20 30.43 1030 10 16.0934 0 0
3:54 pm 15:54 Sunny 53 11.7 33 0.6 47 47 NNE 13 20 30.44 1031 10 16.0934 0 0
4:54 pm 16:54 Sunny 48 8.9 32 0 54 54 NNE 10 17 30.45 1031 10 16.0934 0 0
5:54 pm 17:54 Clear 41 5 31 -0.6 67 67 NE 7 11 30.47 1032 10 16.0934 0 0
6:54 pm 18:54 Clear 36 2.2 29 -1.7 76 76 N 6 9 30.49 1033 10 16.0934 0 0
7:54 pm 19:54 Clear 34 1.1 29 -1.7 82 82 N 8 13 30.5 1033 10 16.0934 0 0
8:54 pm 20:54 Clear 38 3.3 30 -1.1 73 73 Calm 30.5 1033 10 16.0934 0 0
9:54 pm 21:54 Clear 35 1.7 29 -1.7 78 78 NNW 3 6 30.51 1033 10 16.0934 0 0
10:54 pm 22:54 Clear 30 -1.1 26 -3.3 85 85 Calm 30.5 1033 10 16.0934 0 0
11:54 pm 23:54 Clear 28 -2.2 25 -3.9 88 88 N 6 9 30.5 1033 10 16.0934 0 0

Powered by AerisWeather